createdAt,value
2023-03-29T00:00:01.913Z,416.00
2023-03-29T00:01:02.090Z,417.00
2023-03-29T00:02:01.958Z,417.00
2023-03-29T00:03:01.957Z,418.00
2023-03-29T00:04:02.842Z,416.00
2023-03-29T00:05:02.014Z,415.00
2023-03-29T00:06:01.876Z,415.00
2023-03-29T00:07:01.869Z,415.00
2023-03-29T00:08:01.929Z,417.00
2023-03-29T00:09:01.951Z,418.00
2023-03-29T00:10:01.861Z,420.00
2023-03-29T00:11:01.937Z,419.00
2023-03-29T00:12:01.884Z,421.00
2023-03-29T00:13:01.825Z,423.00
2023-03-29T00:14:01.837Z,423.00
2023-03-29T00:15:01.811Z,422.00
2023-03-29T00:16:01.792Z,420.00
2023-03-29T00:17:01.822Z,419.00
2023-03-29T00:18:01.807Z,417.00
2023-03-29T00:19:01.765Z,419.00
2023-03-29T00:20:01.769Z,417.00
2023-03-29T00:21:02.068Z,417.00
2023-03-29T00:22:01.766Z,415.00
2023-03-29T00:23:01.737Z,419.00
2023-03-29T00:24:01.727Z,419.00
2023-03-29T00:25:01.743Z,422.00
2023-03-29T00:26:01.723Z,422.00
2023-03-29T00:27:01.735Z,419.00
2023-03-29T00:28:01.713Z,418.00
2023-03-29T00:29:01.709Z,418.00
2023-03-29T00:30:01.688Z,418.00
2023-03-29T00:31:01.919Z,419.00
2023-03-29T00:32:01.686Z,419.00
2023-03-29T00:33:01.702Z,419.00
2023-03-29T00:34:01.669Z,419.00
2023-03-29T00:35:01.682Z,422.00
2023-03-29T00:36:01.743Z,420.00
2023-03-29T00:37:01.737Z,416.00
2023-03-29T00:38:01.761Z,417.00
2023-03-29T00:39:01.821Z,418.00
2023-03-29T00:40:01.813Z,416.00
2023-03-29T00:41:01.991Z,413.00
2023-03-29T00:42:01.867Z,415.00
2023-03-29T00:43:01.851Z,420.00
2023-03-29T00:44:01.875Z,421.00
2023-03-29T00:45:01.880Z,418.00
2023-03-29T00:46:01.956Z,418.00
2023-03-29T00:47:01.949Z,421.00
2023-03-29T00:48:01.998Z,419.00
2023-03-29T00:49:01.983Z,419.00
2023-03-29T00:50:02.002Z,416.00
2023-03-29T00:51:02.284Z,418.00
2023-03-29T00:52:02.033Z,420.00
2023-03-29T00:53:02.044Z,419.00
2023-03-29T00:54:02.061Z,419.00
2023-03-29T00:55:02.132Z,421.00
2023-03-29T00:56:02.164Z,421.00
2023-03-29T00:57:02.341Z,422.00
2023-03-29T00:58:02.221Z,421.00
2023-03-29T00:59:02.256Z,422.00
2023-03-29T01:00:02.262Z,421.00
2023-03-29T01:01:02.594Z,420.00
2023-03-29T01:02:02.380Z,422.00
2023-03-29T01:03:02.432Z,421.00
2023-03-29T01:04:02.460Z,422.00
2023-03-29T01:05:02.361Z,423.00
2023-03-29T01:06:02.417Z,425.00
2023-03-29T01:07:02.463Z,427.00
2023-03-29T01:08:02.483Z,433.00
2023-03-29T01:09:02.528Z,433.00
2023-03-29T01:10:02.589Z,429.00
2023-03-29T01:11:02.872Z,425.00
2023-03-29T01:12:02.675Z,424.00
2023-03-29T01:13:02.713Z,423.00
2023-03-29T01:14:02.762Z,420.00
2023-03-29T01:15:02.800Z,421.00
2023-03-29T01:16:02.860Z,418.00
2023-03-29T01:17:02.882Z,413.00
2023-03-29T01:18:03.033Z,409.00
2023-03-29T01:19:02.990Z,406.00
2023-03-29T01:20:03.058Z,407.00
2023-03-29T01:21:03.270Z,408.00
2023-03-29T01:22:03.141Z,412.00
2023-03-29T01:23:03.158Z,414.00
2023-03-29T01:24:03.198Z,414.00
2023-03-29T01:25:03.194Z,414.00
2023-03-29T01:26:03.220Z,415.00
2023-03-29T01:27:03.260Z,416.00
2023-03-29T01:28:03.311Z,418.00
2023-03-29T01:29:03.299Z,421.00
2023-03-29T01:30:03.313Z,421.00
2023-03-29T01:31:03.536Z,421.00
2023-03-29T01:32:03.531Z,420.00
2023-03-29T01:33:03.505Z,419.00
2023-03-29T01:34:03.467Z,417.00
2023-03-29T01:35:03.495Z,417.00
2023-03-29T01:36:03.560Z,417.00
2023-03-29T01:37:03.568Z,422.00
2023-03-29T01:38:03.612Z,421.00
2023-03-29T01:39:03.666Z,421.00
2023-03-29T01:40:03.701Z,418.00
2023-03-29T01:41:03.993Z,413.00
2023-03-29T01:42:03.792Z,414.00
2023-03-29T01:43:03.840Z,415.00
2023-03-29T01:44:03.863Z,414.00
2023-03-29T01:45:03.938Z,412.00
2023-03-29T01:46:03.997Z,412.00
2023-03-29T01:47:04.026Z,412.00
2023-03-29T01:48:04.100Z,414.00
2023-03-29T01:49:04.092Z,414.00
2023-03-29T01:50:04.114Z,416.00
2023-03-29T01:51:04.460Z,419.00
2023-03-29T01:52:04.193Z,415.00
2023-03-29T01:53:04.208Z,416.00
2023-03-29T01:54:04.261Z,416.00
2023-03-29T01:55:04.272Z,415.00
2023-03-29T01:56:04.279Z,417.00
2023-03-29T01:57:04.368Z,417.00
2023-03-29T01:58:04.338Z,417.00
2023-03-29T01:59:04.420Z,418.00
2023-03-29T02:00:04.389Z,420.00
2023-03-29T02:01:04.664Z,420.00
2023-03-29T02:02:04.464Z,420.00
2023-03-29T02:03:04.528Z,420.00
2023-03-29T02:04:04.498Z,419.00
2023-03-29T02:05:04.558Z,420.00
2023-03-29T02:06:04.604Z,419.00
2023-03-29T02:07:04.661Z,420.00
2023-03-29T02:08:04.691Z,423.00
2023-03-29T02:09:04.710Z,423.00
2023-03-29T02:10:04.801Z,422.00
2023-03-29T02:11:04.947Z,419.00
2023-03-29T02:12:04.811Z,419.00
2023-03-29T02:13:04.844Z,419.00
2023-03-29T02:14:04.821Z,417.00
2023-03-29T02:15:04.893Z,418.00
2023-03-29T02:16:04.949Z,417.00
2023-03-29T02:17:04.955Z,417.00
2023-03-29T02:18:05.060Z,420.00
2023-03-29T02:19:05.069Z,418.00
2023-03-29T02:20:05.127Z,420.00
2023-03-29T02:21:05.145Z,419.00
2023-03-29T02:22:05.197Z,418.00
2023-03-29T02:23:05.243Z,420.00
2023-03-29T02:24:05.295Z,422.00
2023-03-29T02:25:05.355Z,420.00
2023-03-29T02:26:05.394Z,417.00
2023-03-29T02:27:05.433Z,419.00
2023-03-29T02:28:05.461Z,418.00
2023-03-29T02:29:05.520Z,421.00
2023-03-29T02:30:05.591Z,422.00
2023-03-29T02:31:05.755Z,422.00
2023-03-29T02:32:05.695Z,422.00
2023-03-29T02:33:05.852Z,421.00
2023-03-29T02:34:05.750Z,425.00
2023-03-29T02:35:05.909Z,424.00
2023-03-29T02:36:05.862Z,425.00
2023-03-29T02:37:05.903Z,423.00
2023-03-29T02:38:05.964Z,424.00
2023-03-29T02:39:06.006Z,423.00
2023-03-29T02:40:06.151Z,422.00
2023-03-29T02:41:06.091Z,422.00
2023-03-29T02:42:06.154Z,421.00
2023-03-29T02:43:06.213Z,422.00
2023-03-29T02:44:06.242Z,421.00
2023-03-29T02:45:06.270Z,421.00
2023-03-29T02:46:06.340Z,423.00
2023-03-29T02:47:06.339Z,422.00
2023-03-29T02:48:06.483Z,422.00
2023-03-29T02:49:06.407Z,421.00
2023-03-29T02:50:06.442Z,421.00
2023-03-29T02:51:06.456Z,422.00
2023-03-29T02:52:06.458Z,418.00
2023-03-29T02:53:06.508Z,416.00
2023-03-29T02:54:06.551Z,417.00
2023-03-29T02:55:06.569Z,415.00
2023-03-29T02:56:06.655Z,411.00
2023-03-29T02:57:06.723Z,413.00
2023-03-29T02:58:06.696Z,413.00
2023-03-29T02:59:06.728Z,413.00
2023-03-29T03:00:06.743Z,415.00
2023-03-29T03:01:06.803Z,413.00
2023-03-29T03:02:06.890Z,415.00
2023-03-29T03:03:06.974Z,416.00
2023-03-29T03:04:06.988Z,418.00
2023-03-29T03:05:06.988Z,418.00
2023-03-29T03:06:07.002Z,417.00
2023-03-29T03:07:07.003Z,417.00
2023-03-29T03:08:07.058Z,416.00
2023-03-29T03:09:07.072Z,417.00
2023-03-29T03:10:07.137Z,417.00
2023-03-29T03:11:07.201Z,416.00
2023-03-29T03:12:07.222Z,416.00
2023-03-29T03:13:07.311Z,414.00
2023-03-29T03:14:07.347Z,413.00
2023-03-29T03:15:07.396Z,413.00
2023-03-29T03:16:07.474Z,413.00
2023-03-29T03:17:07.478Z,414.00
2023-03-29T03:18:07.619Z,416.00
2023-03-29T03:19:07.577Z,417.00
2023-03-29T03:20:07.625Z,412.00
2023-03-29T03:21:07.666Z,413.00
2023-03-29T03:22:07.807Z,412.00
2023-03-29T03:23:07.749Z,414.00
2023-03-29T03:24:07.800Z,415.00
2023-03-29T03:25:07.837Z,415.00
2023-03-29T03:26:07.862Z,417.00
2023-03-29T03:27:07.898Z,419.00
2023-03-29T03:28:07.879Z,418.00
2023-03-29T03:29:07.925Z,417.00
2023-03-29T03:30:08.006Z,416.00
2023-03-29T03:31:08.021Z,416.00
2023-03-29T03:32:08.073Z,416.00
2023-03-29T03:33:08.013Z,417.00
2023-03-29T03:34:08.068Z,419.00
2023-03-29T03:35:08.120Z,420.00
2023-03-29T03:36:08.228Z,416.00
2023-03-29T03:37:08.230Z,417.00
2023-03-29T03:38:08.259Z,419.00
2023-03-29T03:39:08.291Z,419.00
2023-03-29T03:40:08.297Z,417.00
2023-03-29T03:41:08.308Z,418.00
2023-03-29T03:42:08.635Z,420.00
2023-03-29T03:43:08.348Z,422.00
2023-03-29T03:44:08.357Z,422.00
2023-03-29T03:45:08.392Z,420.00
2023-03-29T03:46:08.452Z,421.00
2023-03-29T03:47:08.427Z,419.00
2023-03-29T03:48:08.477Z,419.00
2023-03-29T03:49:08.477Z,420.00
2023-03-29T03:50:08.522Z,422.00
2023-03-29T03:51:08.577Z,424.00
2023-03-29T03:52:08.601Z,424.00
2023-03-29T03:53:08.724Z,421.00
2023-03-29T03:54:08.721Z,420.00
2023-03-29T03:55:08.746Z,421.00
2023-03-29T03:56:08.823Z,421.00
2023-03-29T03:57:08.922Z,420.00
2023-03-29T03:58:08.893Z,420.00
2023-03-29T03:59:08.941Z,419.00
2023-03-29T04:00:08.991Z,421.00
2023-03-29T04:01:09.007Z,422.00
2023-03-29T04:02:09.073Z,421.00
2023-03-29T04:03:09.228Z,421.00
2023-03-29T04:04:09.152Z,423.00
2023-03-29T04:05:09.124Z,422.00
2023-03-29T04:06:09.115Z,424.00
2023-03-29T04:07:09.171Z,422.00
2023-03-29T04:08:09.206Z,423.00
2023-03-29T04:09:09.307Z,425.00
2023-03-29T04:10:09.317Z,424.00
2023-03-29T04:11:09.354Z,426.00
2023-03-29T04:12:09.374Z,424.00
2023-03-29T04:13:09.417Z,426.00
2023-03-29T04:14:09.488Z,427.00
2023-03-29T04:15:09.512Z,427.00
2023-03-29T04:16:09.578Z,426.00
2023-03-29T04:17:09.583Z,424.00
2023-03-29T04:18:09.705Z,425.00
2023-03-29T04:19:09.670Z,423.00
2023-03-29T04:20:09.695Z,424.00
2023-03-29T04:21:09.737Z,425.00
2023-03-29T04:22:09.789Z,426.00
2023-03-29T04:23:09.850Z,426.00
2023-03-29T04:24:09.888Z,426.00
2023-03-29T04:25:09.953Z,425.00
2023-03-29T04:26:09.985Z,425.00
2023-03-29T04:27:10.042Z,424.00
2023-03-29T04:28:10.089Z,424.00
2023-03-29T04:29:10.137Z,420.00
2023-03-29T04:30:10.201Z,422.00
2023-03-29T04:31:10.272Z,422.00
2023-03-29T04:32:10.264Z,423.00
2023-03-29T04:33:10.398Z,421.00
2023-03-29T04:34:10.354Z,420.00
2023-03-29T04:35:10.402Z,416.00
2023-03-29T04:36:10.427Z,415.00
2023-03-29T04:37:10.470Z,413.00
2023-03-29T04:38:10.429Z,415.00
2023-03-29T04:39:10.454Z,414.00
2023-03-29T04:40:10.480Z,412.00
2023-03-29T04:41:10.526Z,413.00
2023-03-29T04:42:10.582Z,414.00
2023-03-29T04:43:10.624Z,413.00
2023-03-29T04:44:10.692Z,414.00
2023-03-29T04:45:10.773Z,419.00
2023-03-29T04:46:10.798Z,420.00
2023-03-29T04:47:10.819Z,418.00
2023-03-29T04:48:10.898Z,418.00
2023-03-29T04:49:10.882Z,419.00
2023-03-29T04:50:10.968Z,420.00
2023-03-29T04:51:10.911Z,424.00
2023-03-29T04:52:10.951Z,426.00
2023-03-29T04:53:11.008Z,426.00
2023-03-29T04:54:11.065Z,425.00
2023-03-29T04:55:11.076Z,427.00
2023-03-29T04:56:11.124Z,429.00
2023-03-29T04:57:11.204Z,434.00
2023-03-29T04:58:11.196Z,435.00
2023-03-29T04:59:11.240Z,434.00
2023-03-29T05:00:11.258Z,432.00
2023-03-29T05:01:11.332Z,430.00
2023-03-29T05:02:11.403Z,428.00
2023-03-29T05:03:11.551Z,424.00
2023-03-29T05:04:12.750Z,423.00
2023-03-29T05:05:11.525Z,420.00
2023-03-29T05:06:11.563Z,418.00
2023-03-29T05:07:11.624Z,418.00
2023-03-29T05:08:11.679Z,415.00
2023-03-29T05:09:11.732Z,414.00
2023-03-29T05:10:11.759Z,414.00
2023-03-29T05:11:11.835Z,418.00
2023-03-29T05:12:11.859Z,417.00
2023-03-29T05:13:11.929Z,419.00
2023-03-29T05:14:11.969Z,421.00
2023-03-29T05:15:12.011Z,421.00
2023-03-29T05:16:12.112Z,420.00
2023-03-29T05:17:12.117Z,421.00
2023-03-29T05:18:12.196Z,429.00
2023-03-29T05:19:12.224Z,435.00
2023-03-29T05:20:12.273Z,435.00
2023-03-29T05:21:12.326Z,431.00
2023-03-29T05:22:12.381Z,433.00
2023-03-29T05:23:12.428Z,432.00
2023-03-29T05:24:12.438Z,431.00
2023-03-29T05:25:12.492Z,429.00
2023-03-29T05:26:12.473Z,431.00
2023-03-29T05:27:12.484Z,439.00
2023-03-29T05:28:12.540Z,456.00
2023-03-29T05:29:12.582Z,466.00
2023-03-29T05:30:12.895Z,479.00
2023-03-29T05:31:15.411Z,491.00
2023-03-29T05:32:12.660Z,577.00
2023-03-29T05:33:12.666Z,596.00
2023-03-29T05:34:12.623Z,673.00
2023-03-29T05:35:12.602Z,674.00
2023-03-29T05:36:12.636Z,658.00
2023-03-29T05:37:12.593Z,661.00
2023-03-29T05:38:12.572Z,678.00
2023-03-29T05:39:12.599Z,687.00
2023-03-29T05:40:12.898Z,705.00
2023-03-29T05:41:12.551Z,708.00
2023-03-29T05:42:12.544Z,731.00
2023-03-29T05:43:12.563Z,742.00
2023-03-29T05:44:12.538Z,757.00
2023-03-29T05:45:12.518Z,824.00
2023-03-29T05:46:12.609Z,859.00
2023-03-29T05:47:12.526Z,872.00
2023-03-29T05:48:12.521Z,879.00
2023-03-29T05:49:12.499Z,844.00
2023-03-29T05:50:12.515Z,830.00
2023-03-29T05:51:12.491Z,812.00
2023-03-29T05:52:12.481Z,773.00
2023-03-29T05:53:12.461Z,768.00
2023-03-29T05:54:12.462Z,755.00
2023-03-29T05:55:12.487Z,678.00
2023-03-29T05:56:12.453Z,699.00
2023-03-29T05:57:12.481Z,671.00
2023-03-29T05:58:12.453Z,684.00
2023-03-29T05:59:12.421Z,702.00
2023-03-29T06:00:12.420Z,710.00
2023-03-29T06:01:12.431Z,705.00
2023-03-29T06:02:12.529Z,734.00
2023-03-29T06:03:19.909Z,713.00
2023-03-29T06:04:13.452Z,714.00
2023-03-29T06:05:12.393Z,726.00
2023-03-29T06:06:12.390Z,716.00
2023-03-29T06:07:12.393Z,700.00
2023-03-29T06:08:12.375Z,695.00
2023-03-29T06:09:12.372Z,715.00
2023-03-29T06:10:12.354Z,709.00
2023-03-29T06:11:12.359Z,701.00
2023-03-29T06:12:12.350Z,698.00
2023-03-29T06:13:12.332Z,686.00
2023-03-29T06:14:12.328Z,695.00
2023-03-29T06:15:12.328Z,699.00
2023-03-29T06:16:12.312Z,655.00
2023-03-29T06:17:12.373Z,673.00
2023-03-29T06:18:12.393Z,673.00
2023-03-29T06:19:12.422Z,760.00
2023-03-29T06:20:12.440Z,742.00
2023-03-29T06:21:12.639Z,742.00
2023-03-29T06:22:14.835Z,742.00
2023-03-29T06:23:12.600Z,723.00
2023-03-29T06:24:12.654Z,727.00
2023-03-29T06:25:12.698Z,749.00
2023-03-29T06:26:12.728Z,688.00
2023-03-29T06:27:12.745Z,718.00
2023-03-29T06:28:12.832Z,727.00
2023-03-29T06:29:12.847Z,658.00
2023-03-29T06:30:12.865Z,680.00
2023-03-29T06:31:13.002Z,729.00
2023-03-29T06:32:13.402Z,753.00
2023-03-29T06:33:13.001Z,752.00
2023-03-29T06:34:13.029Z,743.00
2023-03-29T06:35:13.019Z,861.00
2023-03-29T06:36:13.062Z,850.00
2023-03-29T06:37:13.083Z,858.00
2023-03-29T06:38:13.166Z,866.00
2023-03-29T06:39:13.184Z,873.00
2023-03-29T06:40:13.237Z,888.00
2023-03-29T06:41:13.444Z,905.00
2023-03-29T06:42:21.121Z,913.00
2023-03-29T06:43:14.318Z,897.00
2023-03-29T06:44:13.503Z,893.00
2023-03-29T06:45:13.278Z,896.00
2023-03-29T06:46:13.471Z,905.00
2023-03-29T06:47:13.409Z,918.00
2023-03-29T06:48:13.286Z,930.00
2023-03-29T06:49:13.251Z,938.00
2023-03-29T06:50:13.247Z,946.00
2023-03-29T06:51:13.221Z,885.00
2023-03-29T06:52:13.422Z,902.00
2023-03-29T06:53:13.259Z,922.00
2023-03-29T06:54:13.261Z,937.00
2023-03-29T06:55:13.271Z,928.00
2023-03-29T06:56:13.312Z,922.00
2023-03-29T06:57:13.497Z,918.00
2023-03-29T06:58:13.407Z,900.00
2023-03-29T06:59:13.423Z,821.00
2023-03-29T07:00:13.437Z,868.00
2023-03-29T07:01:13.446Z,873.00
2023-03-29T07:02:13.592Z,861.00
2023-03-29T07:03:13.551Z,903.00
2023-03-29T07:04:13.637Z,917.00
2023-03-29T07:05:13.567Z,832.00
2023-03-29T07:06:13.614Z,899.00
2023-03-29T07:07:14.179Z,892.00
2023-03-29T07:08:13.957Z,896.00
2023-03-29T07:09:13.766Z,815.00
2023-03-29T07:10:13.785Z,837.00
2023-03-29T07:11:13.812Z,853.00
2023-03-29T07:12:14.045Z,863.00
2023-03-29T07:13:13.905Z,852.00
2023-03-29T07:14:13.876Z,855.00
2023-03-29T07:15:13.888Z,760.00
2023-03-29T07:16:13.998Z,727.00
2023-03-29T07:17:13.921Z,722.00
2023-03-29T07:18:13.978Z,807.00
2023-03-29T07:19:14.030Z,749.00
2023-03-29T07:20:14.072Z,749.00
2023-03-29T07:21:14.116Z,755.00
2023-03-29T07:22:14.153Z,768.00
2023-03-29T07:23:14.162Z,713.00
2023-03-29T07:24:14.185Z,715.00
2023-03-29T07:25:14.231Z,736.00
2023-03-29T07:26:14.237Z,751.00
2023-03-29T07:27:15.445Z,793.00
2023-03-29T07:28:14.453Z,778.00
2023-03-29T07:29:14.247Z,782.00
2023-03-29T07:30:14.200Z,877.00
2023-03-29T07:31:14.196Z,886.00
2023-03-29T07:32:14.197Z,811.00
2023-03-29T07:33:14.627Z,762.00
2023-03-29T07:34:14.170Z,756.00
2023-03-29T07:35:14.180Z,737.00
2023-03-29T07:36:14.242Z,677.00
2023-03-29T07:37:14.440Z,666.00
2023-03-29T07:38:14.152Z,651.00
2023-03-29T07:39:14.184Z,662.00
2023-03-29T07:40:14.198Z,684.00
2023-03-29T07:41:14.212Z,678.00
2023-03-29T07:42:14.237Z,678.00
2023-03-29T07:43:14.255Z,673.00
2023-03-29T07:44:14.289Z,675.00
2023-03-29T07:45:14.298Z,677.00
2023-03-29T07:46:14.442Z,675.00
2023-03-29T07:47:14.361Z,671.00
2023-03-29T07:48:14.418Z,678.00
2023-03-29T07:49:14.434Z,677.00
2023-03-29T07:50:14.436Z,659.00
2023-03-29T07:51:14.426Z,637.00
2023-03-29T07:52:14.457Z,634.00
2023-03-29T07:53:14.468Z,626.00
2023-03-29T07:54:14.519Z,623.00
2023-03-29T07:55:14.928Z,626.00
2023-03-29T07:56:14.612Z,646.00
2023-03-29T07:57:14.706Z,659.00
2023-03-29T07:58:14.658Z,659.00
2023-03-29T07:59:14.690Z,656.00
2023-03-29T08:00:15.026Z,652.00
2023-03-29T08:01:17.107Z,645.00
2023-03-29T08:02:14.752Z,638.00
2023-03-29T08:03:14.875Z,626.00
2023-03-29T08:04:14.828Z,606.00
2023-03-29T08:05:17.547Z,596.00
2023-03-29T08:06:15.736Z,601.00
2023-03-29T08:07:16.446Z,614.00
2023-03-29T08:08:14.731Z,623.00
2023-03-29T08:09:14.695Z,620.00
2023-03-29T08:10:14.703Z,615.00
2023-03-29T08:11:14.704Z,615.00
2023-03-29T08:12:14.713Z,612.00
2023-03-29T08:13:14.679Z,604.00
2023-03-29T08:14:14.688Z,598.00
2023-03-29T08:15:14.957Z,593.00
2023-03-29T08:16:14.737Z,591.00
2023-03-29T08:17:14.663Z,593.00
2023-03-29T08:18:14.717Z,590.00
2023-03-29T08:19:14.659Z,592.00
2023-03-29T08:20:14.945Z,597.00
2023-03-29T08:21:14.641Z,722.00
2023-03-29T08:22:14.641Z,721.00
2023-03-29T08:23:14.646Z,737.00
2023-03-29T08:24:14.614Z,778.00
2023-03-29T08:25:14.962Z,784.00
2023-03-29T08:26:14.599Z,838.00
2023-03-29T08:27:14.590Z,826.00
2023-03-29T08:28:14.941Z,826.00
2023-03-29T08:29:14.588Z,742.00
2023-03-29T08:30:14.907Z,788.00
2023-03-29T08:31:14.616Z,778.00
2023-03-29T08:32:14.603Z,782.00
2023-03-29T08:33:14.623Z,798.00
2023-03-29T08:34:14.557Z,952.00
2023-03-29T08:35:14.559Z,903.00
2023-03-29T08:36:14.580Z,902.00
2023-03-29T08:37:14.519Z,893.00
2023-03-29T08:38:15.022Z,829.00
2023-03-29T08:39:14.522Z,801.00
2023-03-29T08:40:14.501Z,669.00
2023-03-29T08:41:14.525Z,764.00
2023-03-29T08:42:14.520Z,752.00
2023-03-29T08:43:14.949Z,644.00
2023-03-29T08:44:14.476Z,615.00
2023-03-29T08:45:14.466Z,596.00
2023-03-29T08:46:14.489Z,585.00
2023-03-29T08:47:14.460Z,589.00
2023-03-29T08:48:14.430Z,599.00
2023-03-29T08:49:14.448Z,609.00
2023-03-29T08:50:14.449Z,620.00
2023-03-29T08:51:14.431Z,631.00
2023-03-29T08:52:14.434Z,636.00
2023-03-29T08:53:14.419Z,643.00
2023-03-29T08:54:14.433Z,644.00
2023-03-29T08:55:14.454Z,646.00
2023-03-29T08:56:14.531Z,647.00
2023-03-29T08:57:14.586Z,643.00
2023-03-29T08:58:14.597Z,642.00
2023-03-29T08:59:14.649Z,642.00
2023-03-29T09:00:14.650Z,638.00
2023-03-29T09:01:14.696Z,631.00
2023-03-29T09:02:14.896Z,625.00
2023-03-29T09:03:14.874Z,618.00
2023-03-29T09:04:14.817Z,617.00
2023-03-29T09:05:14.835Z,609.00
2023-03-29T09:06:14.884Z,603.00
2023-03-29T09:07:14.919Z,601.00
2023-03-29T09:08:14.965Z,598.00
2023-03-29T09:09:14.978Z,591.00
2023-03-29T09:10:15.001Z,588.00
2023-03-29T09:11:15.000Z,589.00
2023-03-29T09:12:15.048Z,584.00
2023-03-29T09:13:15.171Z,578.00
2023-03-29T09:14:15.156Z,566.00
2023-03-29T09:15:15.183Z,558.00
2023-03-29T09:16:15.288Z,560.00
2023-03-29T09:17:15.272Z,568.00
2023-03-29T09:18:15.515Z,566.00
2023-03-29T09:19:15.376Z,564.00
2023-03-29T09:20:15.422Z,561.00
2023-03-29T09:21:15.449Z,559.00
2023-03-29T09:22:15.488Z,559.00
2023-03-29T09:23:15.988Z,559.00
2023-03-29T09:24:15.589Z,558.00
2023-03-29T09:25:15.541Z,557.00
2023-03-29T09:26:15.602Z,620.00
2023-03-29T09:27:15.627Z,690.00
2023-03-29T09:28:15.989Z,705.00
2023-03-29T09:29:15.698Z,718.00
2023-03-29T09:30:15.804Z,709.00
2023-03-29T09:31:15.820Z,709.00
2023-03-29T09:32:15.849Z,718.00
2023-03-29T09:33:16.005Z,728.00
2023-03-29T09:34:16.104Z,732.00
2023-03-29T09:35:15.956Z,728.00
2023-03-29T09:36:16.056Z,756.00
2023-03-29T09:37:16.018Z,804.00
2023-03-29T09:38:16.037Z,841.00
2023-03-29T09:39:16.079Z,868.00
2023-03-29T09:40:16.067Z,908.00
2023-03-29T09:41:16.097Z,931.00
2023-03-29T09:42:16.121Z,943.00
2023-03-29T09:43:16.187Z,955.00
2023-03-29T09:44:29.817Z,960.00
2023-03-29T09:45:17.180Z,964.00
2023-03-29T09:46:16.383Z,968.00
2023-03-29T09:47:16.176Z,972.00
2023-03-29T09:48:16.483Z,977.00
2023-03-29T09:49:17.418Z,909.00
2023-03-29T09:50:27.739Z,945.00
2023-03-29T09:51:17.142Z,973.00
2023-03-29T09:52:16.136Z,987.00
2023-03-29T09:53:16.148Z,951.00
2023-03-29T09:54:16.162Z,995.00
2023-03-29T09:55:16.135Z,1000.00
2023-03-29T09:56:16.097Z,1007.00
2023-03-29T09:57:16.180Z,1014.00
2023-03-29T09:58:16.125Z,1023.00
2023-03-29T09:59:16.481Z,1022.00
2023-03-29T10:00:16.122Z,1021.00
2023-03-29T10:01:16.109Z,1018.00
2023-03-29T10:02:16.066Z,1014.00
2023-03-29T10:03:16.053Z,1007.00
2023-03-29T10:04:16.553Z,1003.00
2023-03-29T10:05:16.115Z,997.00
2023-03-29T10:06:16.189Z,984.00
2023-03-29T10:07:16.223Z,624.00
2023-03-29T10:08:19.027Z,736.00
2023-03-29T10:09:16.501Z,737.00
2023-03-29T10:10:16.276Z,739.00
2023-03-29T10:11:16.205Z,753.00
2023-03-29T10:12:16.203Z,759.00
2023-03-29T10:13:16.201Z,756.00
2023-03-29T10:14:16.204Z,740.00
2023-03-29T10:15:26.712Z,718.00
2023-03-29T10:16:17.256Z,722.00
2023-03-29T10:17:16.174Z,708.00
2023-03-29T10:18:16.165Z,701.00
2023-03-29T10:19:16.489Z,694.00
2023-03-29T10:20:16.165Z,701.00
2023-03-29T10:21:16.143Z,771.00
2023-03-29T10:22:16.120Z,765.00
2023-03-29T10:23:16.157Z,680.00
2023-03-29T10:24:16.143Z,648.00
2023-03-29T10:25:16.119Z,583.00
2023-03-29T10:26:16.118Z,572.00
2023-03-29T10:27:16.087Z,570.00
2023-03-29T10:28:16.134Z,588.00
2023-03-29T10:29:16.106Z,607.00
2023-03-29T10:30:16.127Z,564.00
2023-03-29T10:31:17.861Z,562.00
2023-03-29T10:32:16.163Z,568.00
2023-03-29T10:33:16.168Z,570.00
2023-03-29T10:34:16.174Z,567.00
2023-03-29T10:35:16.210Z,565.00
2023-03-29T10:36:16.297Z,568.00
2023-03-29T10:37:16.275Z,564.00
2023-03-29T10:38:16.305Z,548.00
2023-03-29T10:39:16.352Z,534.00
2023-03-29T10:40:16.522Z,523.00
2023-03-29T10:41:16.436Z,519.00
2023-03-29T10:42:16.451Z,513.00
2023-03-29T10:43:16.469Z,510.00
2023-03-29T10:44:16.502Z,506.00
2023-03-29T10:45:16.552Z,506.00
2023-03-29T10:46:16.728Z,507.00
2023-03-29T10:47:16.649Z,508.00
2023-03-29T10:48:16.653Z,514.00
2023-03-29T10:49:16.708Z,517.00
2023-03-29T10:50:16.743Z,521.00
2023-03-29T10:51:16.747Z,529.00
2023-03-29T10:52:16.781Z,527.00
2023-03-29T10:53:16.832Z,519.00
2023-03-29T10:54:16.847Z,513.00
2023-03-29T10:55:16.927Z,503.00
2023-03-29T10:56:16.909Z,492.00
2023-03-29T10:57:16.994Z,488.00
2023-03-29T10:58:17.025Z,484.00
2023-03-29T10:59:17.020Z,482.00
2023-03-29T11:00:17.526Z,483.00
2023-03-29T11:01:18.054Z,484.00
2023-03-29T11:02:17.107Z,483.00
2023-03-29T11:03:19.515Z,496.00
2023-03-29T11:04:17.075Z,502.00
2023-03-29T11:05:17.057Z,498.00
2023-03-29T11:06:17.028Z,497.00
2023-03-29T11:07:17.026Z,501.00
2023-03-29T11:08:17.024Z,503.00
2023-03-29T11:09:17.026Z,506.00
2023-03-29T11:10:17.013Z,509.00
2023-03-29T11:11:17.024Z,510.00
2023-03-29T11:12:17.014Z,509.00
2023-03-29T11:13:16.989Z,505.00
2023-03-29T11:14:16.961Z,500.00
2023-03-29T11:15:17.027Z,497.00
2023-03-29T11:16:17.029Z,493.00
2023-03-29T11:17:16.984Z,490.00
2023-03-29T11:18:16.944Z,496.00
2023-03-29T11:19:16.946Z,498.00
2023-03-29T11:20:16.968Z,521.00
2023-03-29T11:21:16.913Z,647.00
2023-03-29T11:22:16.896Z,616.00
2023-03-29T11:23:16.902Z,605.00
2023-03-29T11:24:16.904Z,597.00
2023-03-29T11:25:16.900Z,602.00
2023-03-29T11:26:16.894Z,583.00
2023-03-29T11:27:16.873Z,539.00
2023-03-29T11:28:16.877Z,523.00
2023-03-29T11:29:16.878Z,517.00
2023-03-29T11:30:16.866Z,514.00
2023-03-29T11:31:16.878Z,506.00
2023-03-29T11:32:16.830Z,505.00
2023-03-29T11:33:16.856Z,503.00
2023-03-29T11:34:16.845Z,502.00
2023-03-29T11:35:16.815Z,502.00
2023-03-29T11:36:16.873Z,502.00
2023-03-29T11:37:16.812Z,504.00
2023-03-29T11:38:16.780Z,506.00
2023-03-29T11:39:16.798Z,509.00
2023-03-29T11:40:16.789Z,509.00
2023-03-29T11:41:16.778Z,508.00
2023-03-29T11:42:16.828Z,505.00
2023-03-29T11:43:16.836Z,502.00
2023-03-29T11:44:16.919Z,500.00
2023-03-29T11:45:16.927Z,500.00
2023-03-29T11:46:16.984Z,501.00
2023-03-29T11:47:16.987Z,501.00
2023-03-29T11:48:17.015Z,501.00
2023-03-29T11:49:17.065Z,498.00
2023-03-29T11:50:17.116Z,499.00
2023-03-29T11:51:17.135Z,496.00
2023-03-29T11:52:17.171Z,497.00
2023-03-29T11:53:17.205Z,496.00
2023-03-29T11:54:17.217Z,494.00
2023-03-29T11:55:17.244Z,493.00
2023-03-29T11:56:17.552Z,493.00
2023-03-29T11:57:17.626Z,494.00
2023-03-29T11:58:17.389Z,496.00
2023-03-29T11:59:17.436Z,496.00
2023-03-29T12:00:17.485Z,495.00
2023-03-29T12:01:17.554Z,491.00
2023-03-29T12:02:18.079Z,490.00
2023-03-29T12:03:18.103Z,490.00
2023-03-29T12:04:17.726Z,490.00
2023-03-29T12:05:17.658Z,488.00
2023-03-29T12:06:17.681Z,487.00
2023-03-29T12:07:17.748Z,488.00
2023-03-29T12:08:18.050Z,487.00
2023-03-29T12:09:17.839Z,488.00
2023-03-29T12:10:17.859Z,486.00
2023-03-29T12:11:17.875Z,486.00
2023-03-29T12:12:17.993Z,484.00
2023-03-29T12:13:18.045Z,485.00
2023-03-29T12:14:17.924Z,481.00
2023-03-29T12:15:17.977Z,483.00
2023-03-29T12:16:18.033Z,484.00
2023-03-29T12:17:18.074Z,485.00
2023-03-29T12:18:18.119Z,486.00
2023-03-29T12:19:18.154Z,483.00
2023-03-29T12:20:18.186Z,480.00
2023-03-29T12:21:18.224Z,477.00
2023-03-29T12:22:18.246Z,476.00
2023-03-29T12:23:18.240Z,479.00
2023-03-29T12:24:18.279Z,477.00
2023-03-29T12:25:20.212Z,476.00
2023-03-29T12:26:18.255Z,477.00
2023-03-29T12:27:18.272Z,476.00
2023-03-29T12:28:18.253Z,476.00